sensor_id;sensor_type;location;lat;lon;timestamp;P1;durP1;ratioP1;P2;durP2;ratioP2
1074;SDS011;526;51.392;12.448;2022-10-16T00:01:45;1.13;;;1.03;;
1074;SDS011;526;51.392;12.448;2022-10-16T00:04:11;1.97;;;1.87;;
1074;SDS011;526;51.392;12.448;2022-10-16T00:06:37;1.30;;;1.20;;
1074;SDS011;526;51.392;12.448;2022-10-16T00:09:03;1.20;;;1.10;;
1074;SDS011;526;51.392;12.448;2022-10-16T00:11:30;1.83;;;1.10;;
1074;SDS011;526;51.392;12.448;2022-10-16T00:14:02;1.53;;;1.00;;
1074;SDS011;526;51.392;12.448;2022-10-16T00:16:30;1.83;;;1.60;;
1074;SDS011;526;51.392;12.448;2022-10-16T00:18:56;1.20;;;1.10;;
1074;SDS011;526;51.392;12.448;2022-10-16T00:21:23;1.20;;;1.10;;
1074;SDS011;526;51.392;12.448;2022-10-16T00:23:54;1.57;;;1.47;;
1074;SDS011;526;51.392;12.448;2022-10-16T00:26:29;1.20;;;1.10;;
1074;SDS011;526;51.392;12.448;2022-10-16T00:28:56;1.27;;;1.17;;
1074;SDS011;526;51.392;12.448;2022-10-16T00:31:22;1.00;;;0.90;;
1074;SDS011;526;51.392;12.448;2022-10-16T00:33:48;1.23;;;1.13;;
1074;SDS011;526;51.392;12.448;2022-10-16T00:36:16;1.17;;;1.10;;
1074;SDS011;526;51.392;12.448;2022-10-16T00:38:43;1.03;;;1.00;;
1074;SDS011;526;51.392;12.448;2022-10-16T00:41:12;1.30;;;1.20;;
1074;SDS011;526;51.392;12.448;2022-10-16T00:46:35;1.87;;;1.83;;
1074;SDS011;526;51.392;12.448;2022-10-16T00:49:10;1.00;;;0.90;;
1074;SDS011;526;51.392;12.448;2022-10-16T00:51:40;1.07;;;1.00;;
1074;SDS011;526;51.392;12.448;2022-10-16T00:54:09;1.77;;;1.33;;
1074;SDS011;526;51.392;12.448;2022-10-16T00:56:41;1.37;;;1.30;;
1074;SDS011;526;51.392;12.448;2022-10-16T00:59:11;0.90;;;0.80;;
1074;SDS011;526;51.392;12.448;2022-10-16T01:01:41;0.93;;;0.83;;
1074;SDS011;526;51.392;12.448;2022-10-16T01:04:06;1.40;;;1.30;;
1074;SDS011;526;51.392;12.448;2022-10-16T01:06:58;1.10;;;1.00;;
1074;SDS011;526;51.392;12.448;2022-10-16T01:17:53;1.40;;;1.30;;
1074;SDS011;526;51.392;12.448;2022-10-16T01:28:18;1.17;;;1.07;;
1074;SDS011;526;51.392;12.448;2022-10-16T01:30:47;0.97;;;0.87;;
1074;SDS011;526;51.392;12.448;2022-10-16T01:33:21;1.00;;;0.90;;
1074;SDS011;526;51.392;12.448;2022-10-16T01:35:54;1.00;;;0.90;;
1074;SDS011;526;51.392;12.448;2022-10-16T01:38:31;0.93;;;0.83;;
1074;SDS011;526;51.392;12.448;2022-10-16T01:41:05;1.57;;;1.20;;
1074;SDS011;526;51.392;12.448;2022-10-16T01:43:36;1.10;;;1.00;;
1074;SDS011;526;51.392;12.448;2022-10-16T01:46:30;1.10;;;1.00;;
1074;SDS011;526;51.392;12.448;2022-10-16T01:48:56;1.20;;;1.10;;
1074;SDS011;526;51.392;12.448;2022-10-16T01:51:24;1.00;;;0.90;;
1074;SDS011;526;51.392;12.448;2022-10-16T01:53:52;1.50;;;1.40;;
1074;SDS011;526;51.392;12.448;2022-10-16T01:56:20;1.27;;;1.17;;
1074;SDS011;526;51.392;12.448;2022-10-16T01:58:56;1.03;;;1.00;;
1074;SDS011;526;51.392;12.448;2022-10-16T02:01:27;1.07;;;0.97;;
1074;SDS011;526;51.392;12.448;2022-10-16T02:03:57;1.20;;;1.10;;
1074;SDS011;526;51.392;12.448;2022-10-16T02:06:26;0.90;;;0.80;;
1074;SDS011;526;51.392;12.448;2022-10-16T02:08:53;1.00;;;0.90;;
1074;SDS011;526;51.392;12.448;2022-10-16T02:11:18;0.70;;;0.70;;
1074;SDS011;526;51.392;12.448;2022-10-16T02:13:51;1.07;;;1.00;;
1074;SDS011;526;51.392;12.448;2022-10-16T02:16:20;1.17;;;1.07;;
1074;SDS011;526;51.392;12.448;2022-10-16T02:18:45;1.20;;;1.10;;
1074;SDS011;526;51.392;12.448;2022-10-16T02:21:28;1.47;;;1.00;;
1074;SDS011;526;51.392;12.448;2022-10-16T02:24:08;1.00;;;0.90;;
1074;SDS011;526;51.392;12.448;2022-10-16T02:27:00;4.50;;;1.33;;
1074;SDS011;526;51.392;12.448;2022-10-16T02:29:33;1.07;;;0.97;;
1074;SDS011;526;51.392;12.448;2022-10-16T02:32:05;6.73;;;1.20;;
1074;SDS011;526;51.392;12.448;2022-10-16T02:34:35;1.10;;;1.00;;
1074;SDS011;526;51.392;12.448;2022-10-16T02:37:01;0.90;;;0.80;;
1074;SDS011;526;51.392;12.448;2022-10-16T02:39:30;0.90;;;0.80;;
1074;SDS011;526;51.392;12.448;2022-10-16T02:41:59;1.57;;;0.80;;
1074;SDS011;526;51.392;12.448;2022-10-16T02:44:27;1.00;;;0.90;;
1074;SDS011;526;51.392;12.448;2022-10-16T02:46:59;0.90;;;0.80;;
1074;SDS011;526;51.392;12.448;2022-10-16T02:49:27;1.47;;;0.90;;
1074;SDS011;526;51.392;12.448;2022-10-16T02:51:57;0.70;;;0.70;;
1074;SDS011;526;51.392;12.448;2022-10-16T02:54:29;1.10;;;1.00;;
1074;SDS011;526;51.392;12.448;2022-10-16T02:56:57;1.10;;;1.00;;
1074;SDS011;526;51.392;12.448;2022-10-16T02:59:29;2.00;;;1.33;;
1074;SDS011;526;51.392;12.448;2022-10-16T03:01:57;1.53;;;1.30;;
1074;SDS011;526;51.392;12.448;2022-10-16T03:04:28;1.23;;;1.13;;
1074;SDS011;526;51.392;12.448;2022-10-16T03:09:48;1.20;;;1.10;;
1074;SDS011;526;51.392;12.448;2022-10-16T03:12:17;1.20;;;1.10;;
1074;SDS011;526;51.392;12.448;2022-10-16T03:14:50;1.20;;;1.10;;
1074;SDS011;526;51.392;12.448;2022-10-16T03:17:19;0.97;;;0.87;;
1074;SDS011;526;51.392;12.448;2022-10-16T03:19:51;1.10;;;1.00;;
1074;SDS011;526;51.392;12.448;2022-10-16T03:22:19;1.07;;;0.97;;
1074;SDS011;526;51.392;12.448;2022-10-16T03:24:45;1.90;;;1.53;;
1074;SDS011;526;51.392;12.448;2022-10-16T03:27:34;1.10;;;1.00;;
1074;SDS011;526;51.392;12.448;2022-10-16T03:30:07;0.77;;;0.73;;
1074;SDS011;526;51.392;12.448;2022-10-16T03:32:33;1.00;;;0.90;;
1074;SDS011;526;51.392;12.448;2022-10-16T03:35:06;1.10;;;1.00;;
1074;SDS011;526;51.392;12.448;2022-10-16T03:37:32;0.90;;;0.80;;
1074;SDS011;526;51.392;12.448;2022-10-16T03:40:01;1.27;;;1.17;;
1074;SDS011;526;51.392;12.448;2022-10-16T03:42:27;2.10;;;1.00;;
1074;SDS011;526;51.392;12.448;2022-10-16T03:44:52;0.90;;;0.80;;
1074;SDS011;526;51.392;12.448;2022-10-16T03:47:18;0.93;;;0.83;;
1074;SDS011;526;51.392;12.448;2022-10-16T03:49:46;0.90;;;0.80;;
1074;SDS011;526;51.392;12.448;2022-10-16T03:52:12;1.00;;;0.90;;
1074;SDS011;526;51.392;12.448;2022-10-16T03:54:38;0.97;;;0.87;;
1074;SDS011;526;51.392;12.448;2022-10-16T03:57:04;1.40;;;1.30;;
1074;SDS011;526;51.392;12.448;2022-10-16T03:59:29;1.47;;;1.37;;
1074;SDS011;526;51.392;12.448;2022-10-16T04:01:55;7.40;;;1.00;;
1074;SDS011;526;51.392;12.448;2022-10-16T04:04:20;1.67;;;1.57;;
1074;SDS011;526;51.392;12.448;2022-10-16T04:06:46;1.10;;;1.00;;
1074;SDS011;526;51.392;12.448;2022-10-16T04:09:11;2.50;;;1.10;;
1074;SDS011;526;51.392;12.448;2022-10-16T04:11:37;1.00;;;0.90;;
1074;SDS011;526;51.392;12.448;2022-10-16T04:14:02;0.83;;;0.77;;
1074;SDS011;526;51.392;12.448;2022-10-16T04:16:28;1.00;;;0.90;;
1074;SDS011;526;51.392;12.448;2022-10-16T04:18:53;1.37;;;1.30;;
1074;SDS011;526;51.392;12.448;2022-10-16T04:21:19;0.90;;;0.80;;
1074;SDS011;526;51.392;12.448;2022-10-16T04:23:44;1.50;;;1.40;;
1074;SDS011;526;51.392;12.448;2022-10-16T04:26:10;1.40;;;1.30;;
1074;SDS011;526;51.392;12.448;2022-10-16T04:28:36;1.20;;;1.10;;
1074;SDS011;526;51.392;12.448;2022-10-16T04:31:03;1.10;;;1.00;;
1074;SDS011;526;51.392;12.448;2022-10-16T04:33:29;1.03;;;0.93;;
1074;SDS011;526;51.392;12.448;2022-10-16T04:36:01;1.00;;;0.90;;
1074;SDS011;526;51.392;12.448;2022-10-16T04:38:28;1.30;;;1.20;;
1074;SDS011;526;51.392;12.448;2022-10-16T04:40:54;1.10;;;1.00;;
1074;SDS011;526;51.392;12.448;2022-10-16T04:43:19;0.90;;;0.80;;
1074;SDS011;526;51.392;12.448;2022-10-16T04:45:45;1.20;;;1.10;;
1074;SDS011;526;51.392;12.448;2022-10-16T04:48:11;1.67;;;1.13;;
1074;SDS011;526;51.392;12.448;2022-10-16T04:50:36;1.73;;;1.63;;
1074;SDS011;526;51.392;12.448;2022-10-16T04:53:02;1.20;;;1.10;;
1074;SDS011;526;51.392;12.448;2022-10-16T04:55:27;1.33;;;1.10;;
1074;SDS011;526;51.392;12.448;2022-10-16T04:57:53;1.30;;;1.20;;
1074;SDS011;526;51.392;12.448;2022-10-16T05:00:19;1.03;;;0.93;;
1074;SDS011;526;51.392;12.448;2022-10-16T05:02:44;1.10;;;1.00;;
1074;SDS011;526;51.392;12.448;2022-10-16T05:05:10;1.20;;;1.10;;
1074;SDS011;526;51.392;12.448;2022-10-16T05:07:36;1.10;;;1.00;;
1074;SDS011;526;51.392;12.448;2022-10-16T05:10:02;1.10;;;1.00;;
1074;SDS011;526;51.392;12.448;2022-10-16T05:12:28;1.30;;;1.20;;
1074;SDS011;526;51.392;12.448;2022-10-16T05:14:53;1.20;;;1.10;;
1074;SDS011;526;51.392;12.448;2022-10-16T05:17:23;1.60;;;1.50;;
1074;SDS011;526;51.392;12.448;2022-10-16T05:19:49;1.10;;;1.00;;
1074;SDS011;526;51.392;12.448;2022-10-16T05:22:15;1.20;;;1.10;;
1074;SDS011;526;51.392;12.448;2022-10-16T05:27:14;1.20;;;1.10;;
1074;SDS011;526;51.392;12.448;2022-10-16T05:29:47;1.60;;;1.50;;
1074;SDS011;526;51.392;12.448;2022-10-16T05:32:13;1.93;;;1.33;;
1074;SDS011;526;51.392;12.448;2022-10-16T05:34:40;1.10;;;1.00;;
1074;SDS011;526;51.392;12.448;2022-10-16T05:37:06;1.10;;;1.00;;
1074;SDS011;526;51.392;12.448;2022-10-16T05:39:32;1.57;;;1.50;;
1074;SDS011;526;51.392;12.448;2022-10-16T05:41:58;1.00;;;0.90;;
1074;SDS011;526;51.392;12.448;2022-10-16T05:44:23;1.00;;;0.90;;
1074;SDS011;526;51.392;12.448;2022-10-16T05:46:49;2.60;;;1.80;;
1074;SDS011;526;51.392;12.448;2022-10-16T05:49:14;2.40;;;1.27;;
1074;SDS011;526;51.392;12.448;2022-10-16T05:51:40;0.93;;;0.90;;
1074;SDS011;526;51.392;12.448;2022-10-16T05:54:06;1.00;;;0.90;;
1074;SDS011;526;51.392;12.448;2022-10-16T05:56:32;2.30;;;1.40;;
1074;SDS011;526;51.392;12.448;2022-10-16T05:58:58;1.40;;;1.30;;
1074;SDS011;526;51.392;12.448;2022-10-16T06:01:23;2.80;;;1.10;;
1074;SDS011;526;51.392;12.448;2022-10-16T06:03:50;1.10;;;1.00;;
1074;SDS011;526;51.392;12.448;2022-10-16T06:06:17;1.43;;;1.40;;
1074;SDS011;526;51.392;12.448;2022-10-16T06:08:45;3.20;;;1.57;;
1074;SDS011;526;51.392;12.448;2022-10-16T06:11:13;1.20;;;1.10;;
1074;SDS011;526;51.392;12.448;2022-10-16T06:13:40;1.10;;;1.00;;
1074;SDS011;526;51.392;12.448;2022-10-16T06:16:07;1.10;;;1.07;;
1074;SDS011;526;51.392;12.448;2022-10-16T06:18:34;1.00;;;0.90;;
1074;SDS011;526;51.392;12.448;2022-10-16T06:20:59;1.40;;;1.30;;
1074;SDS011;526;51.392;12.448;2022-10-16T06:23:31;1.07;;;0.97;;
1074;SDS011;526;51.392;12.448;2022-10-16T06:26:03;1.20;;;1.10;;
1074;SDS011;526;51.392;12.448;2022-10-16T06:28:33;1.20;;;1.10;;
1074;SDS011;526;51.392;12.448;2022-10-16T06:30:59;1.23;;;1.13;;
1074;SDS011;526;51.392;12.448;2022-10-16T06:33:25;1.10;;;1.00;;
1074;SDS011;526;51.392;12.448;2022-10-16T06:35:51;1.17;;;1.10;;
1074;SDS011;526;51.392;12.448;2022-10-16T06:38:16;2.00;;;1.17;;
1074;SDS011;526;51.392;12.448;2022-10-16T06:40:42;1.47;;;1.23;;
1074;SDS011;526;51.392;12.448;2022-10-16T06:43:07;3.80;;;1.13;;
1074;SDS011;526;51.392;12.448;2022-10-16T06:45:33;1.77;;;1.20;;
1074;SDS011;526;51.392;12.448;2022-10-16T06:47:58;1.07;;;0.90;;
1074;SDS011;526;51.392;12.448;2022-10-16T06:50:24;0.97;;;0.87;;
1074;SDS011;526;51.392;12.448;2022-10-16T06:52:50;1.03;;;0.93;;
1074;SDS011;526;51.392;12.448;2022-10-16T06:55:15;1.07;;;0.97;;
1074;SDS011;526;51.392;12.448;2022-10-16T06:57:42;1.97;;;1.87;;
1074;SDS011;526;51.392;12.448;2022-10-16T07:00:08;1.13;;;1.03;;
1074;SDS011;526;51.392;12.448;2022-10-16T07:02:34;1.40;;;1.30;;
1074;SDS011;526;51.392;12.448;2022-10-16T07:04:59;2.27;;;1.83;;
1074;SDS011;526;51.392;12.448;2022-10-16T07:07:25;1.03;;;1.00;;
1074;SDS011;526;51.392;12.448;2022-10-16T07:09:51;1.00;;;0.90;;
1074;SDS011;526;51.392;12.448;2022-10-16T07:12:17;0.90;;;0.80;;
1074;SDS011;526;51.392;12.448;2022-10-16T07:14:43;1.10;;;0.90;;
1074;SDS011;526;51.392;12.448;2022-10-16T07:17:08;0.93;;;0.83;;
1074;SDS011;526;51.392;12.448;2022-10-16T07:19:34;1.50;;;1.20;;
1074;SDS011;526;51.392;12.448;2022-10-16T07:22:00;2.40;;;2.07;;
1074;SDS011;526;51.392;12.448;2022-10-16T07:24:25;1.17;;;1.10;;
1074;SDS011;526;51.392;12.448;2022-10-16T07:26:51;1.00;;;0.90;;
1074;SDS011;526;51.392;12.448;2022-10-16T07:29:18;2.30;;;1.83;;
1074;SDS011;526;51.392;12.448;2022-10-16T07:31:45;1.03;;;0.97;;
1074;SDS011;526;51.392;12.448;2022-10-16T07:34:12;2.77;;;1.40;;
1074;SDS011;526;51.392;12.448;2022-10-16T07:36:39;1.20;;;1.10;;
1074;SDS011;526;51.392;12.448;2022-10-16T07:39:04;1.10;;;1.00;;
1074;SDS011;526;51.392;12.448;2022-10-16T07:41:30;1.07;;;0.97;;
1074;SDS011;526;51.392;12.448;2022-10-16T07:43:58;1.50;;;1.40;;
1074;SDS011;526;51.392;12.448;2022-10-16T07:46:27;2.10;;;1.30;;
1074;SDS011;526;51.392;12.448;2022-10-16T07:48:53;1.80;;;1.03;;
1074;SDS011;526;51.392;12.448;2022-10-16T07:51:19;1.23;;;1.10;;
1074;SDS011;526;51.392;12.448;2022-10-16T07:53:47;1.30;;;1.20;;
1074;SDS011;526;51.392;12.448;2022-10-16T07:56:12;0.70;;;0.70;;
1074;SDS011;526;51.392;12.448;2022-10-16T07:58:39;0.97;;;0.87;;
1074;SDS011;526;51.392;12.448;2022-10-16T08:01:05;1.10;;;1.00;;
1074;SDS011;526;51.392;12.448;2022-10-16T08:03:32;1.10;;;1.10;;
1074;SDS011;526;51.392;12.448;2022-10-16T08:05:58;0.93;;;0.90;;
1074;SDS011;526;51.392;12.448;2022-10-16T08:08:24;0.90;;;0.80;;
1074;SDS011;526;51.392;12.448;2022-10-16T08:10:50;1.53;;;1.47;;
1074;SDS011;526;51.392;12.448;2022-10-16T08:13:16;1.10;;;1.00;;
1074;SDS011;526;51.392;12.448;2022-10-16T08:15:42;2.00;;;1.07;;
1074;SDS011;526;51.392;12.448;2022-10-16T08:18:09;2.07;;;1.00;;
1074;SDS011;526;51.392;12.448;2022-10-16T08:20:35;4.10;;;1.20;;
1074;SDS011;526;51.392;12.448;2022-10-16T08:23:00;1.17;;;1.07;;
1074;SDS011;526;51.392;12.448;2022-10-16T08:25:26;1.37;;;1.30;;
1074;SDS011;526;51.392;12.448;2022-10-16T08:27:52;1.00;;;0.90;;
1074;SDS011;526;51.392;12.448;2022-10-16T08:30:18;0.77;;;0.73;;
1074;SDS011;526;51.392;12.448;2022-10-16T08:32:45;0.90;;;0.80;;
1074;SDS011;526;51.392;12.448;2022-10-16T08:35:11;0.90;;;0.80;;
1074;SDS011;526;51.392;12.448;2022-10-16T08:37:38;1.20;;;1.10;;
1074;SDS011;526;51.392;12.448;2022-10-16T08:40:05;1.10;;;1.00;;
1074;SDS011;526;51.392;12.448;2022-10-16T08:43:21;0.80;;;0.70;;
1074;SDS011;526;51.392;12.448;2022-10-16T08:45:23;1.00;;;0.90;;
1074;SDS011;526;51.392;12.448;2022-10-16T08:50:42;1.13;;;1.10;;
1074;SDS011;526;51.392;12.448;2022-10-16T08:53:13;1.07;;;1.00;;
1074;SDS011;526;51.392;12.448;2022-10-16T08:55:52;1.00;;;0.90;;
1074;SDS011;526;51.392;12.448;2022-10-16T08:58:22;0.90;;;0.80;;
1074;SDS011;526;51.392;12.448;2022-10-16T09:00:56;1.53;;;1.43;;
1074;SDS011;526;51.392;12.448;2022-10-16T09:03:27;1.13;;;1.03;;
1074;SDS011;526;51.392;12.448;2022-10-16T09:09:05;1.00;;;0.90;;
1074;SDS011;526;51.392;12.448;2022-10-16T09:14:02;0.93;;;0.83;;
1074;SDS011;526;51.392;12.448;2022-10-16T09:16:41;1.20;;;1.10;;
1074;SDS011;526;51.392;12.448;2022-10-16T09:19:20;1.43;;;1.37;;
1074;SDS011;526;51.392;12.448;2022-10-16T09:22:09;0.90;;;0.80;;
1074;SDS011;526;51.392;12.448;2022-10-16T09:24:37;0.97;;;0.90;;
1074;SDS011;526;51.392;12.448;2022-10-16T09:27:03;1.20;;;1.10;;
1074;SDS011;526;51.392;12.448;2022-10-16T09:29:28;1.00;;;0.90;;
1074;SDS011;526;51.392;12.448;2022-10-16T09:31:54;1.10;;;1.00;;
1074;SDS011;526;51.392;12.448;2022-10-16T09:37:03;1.00;;;0.90;;
1074;SDS011;526;51.392;12.448;2022-10-16T09:39:30;1.10;;;1.00;;
1074;SDS011;526;51.392;12.448;2022-10-16T09:42:10;0.70;;;0.70;;
1074;SDS011;526;51.392;12.448;2022-10-16T09:44:39;0.90;;;0.80;;
1074;SDS011;526;51.392;12.448;2022-10-16T09:47:12;0.70;;;0.70;;
1074;SDS011;526;51.392;12.448;2022-10-16T09:49:53;0.70;;;0.70;;
1074;SDS011;526;51.392;12.448;2022-10-16T09:52:26;1.93;;;0.90;;
1074;SDS011;526;51.392;12.448;2022-10-16T09:54:57;0.90;;;0.80;;
1074;SDS011;526;51.392;12.448;2022-10-16T09:57:25;0.90;;;0.80;;
1074;SDS011;526;51.392;12.448;2022-10-16T09:59:52;1.00;;;0.80;;
1074;SDS011;526;51.392;12.448;2022-10-16T10:02:20;0.90;;;0.80;;
1074;SDS011;526;51.392;12.448;2022-10-16T10:04:58;0.93;;;0.83;;
1074;SDS011;526;51.392;12.448;2022-10-16T10:07:28;2.77;;;1.07;;
1074;SDS011;526;51.392;12.448;2022-10-16T10:10:00;1.63;;;1.53;;
1074;SDS011;526;51.392;12.448;2022-10-16T10:12:28;0.70;;;0.70;;
1074;SDS011;526;51.392;12.448;2022-10-16T10:15:07;1.00;;;0.93;;
1074;SDS011;526;51.392;12.448;2022-10-16T10:17:45;1.90;;;1.40;;
1074;SDS011;526;51.392;12.448;2022-10-16T10:23:24;1.00;;;0.90;;
1074;SDS011;526;51.392;12.448;2022-10-16T10:28:29;0.90;;;0.80;;
1074;SDS011;526;51.392;12.448;2022-10-16T10:39:20;1.27;;;1.00;;
1074;SDS011;526;51.392;12.448;2022-10-16T10:41:44;1.03;;;0.93;;
1074;SDS011;526;51.392;12.448;2022-10-16T10:44:30;1.20;;;0.83;;
1074;SDS011;526;51.392;12.448;2022-10-16T10:47:23;1.17;;;1.07;;
1074;SDS011;526;51.392;12.448;2022-10-16T10:50:26;1.00;;;0.90;;
1074;SDS011;526;51.392;12.448;2022-10-16T10:53:19;1.10;;;1.00;;
1074;SDS011;526;51.392;12.448;2022-10-16T10:55:57;1.23;;;1.03;;
1074;SDS011;526;51.392;12.448;2022-10-16T10:58:39;0.80;;;0.80;;
1074;SDS011;526;51.392;12.448;2022-10-16T11:06:46;0.90;;;0.80;;
1074;SDS011;526;51.392;12.448;2022-10-16T11:09:18;1.03;;;0.97;;
1074;SDS011;526;51.392;12.448;2022-10-16T11:12:06;0.93;;;0.93;;
1074;SDS011;526;51.392;12.448;2022-10-16T11:14:51;1.03;;;0.93;;
1074;SDS011;526;51.392;12.448;2022-10-16T11:18:11;2.17;;;1.10;;
1074;SDS011;526;51.392;12.448;2022-10-16T11:20:28;0.90;;;0.80;;
1074;SDS011;526;51.392;12.448;2022-10-16T11:22:59;1.10;;;1.00;;
1074;SDS011;526;51.392;12.448;2022-10-16T11:25:52;1.47;;;1.37;;
1074;SDS011;526;51.392;12.448;2022-10-16T11:28:44;1.13;;;0.97;;
1074;SDS011;526;51.392;12.448;2022-10-16T11:31:45;1.23;;;1.13;;
1074;SDS011;526;51.392;12.448;2022-10-16T11:41:01;1.10;;;1.00;;
1074;SDS011;526;51.392;12.448;2022-10-16T11:49:59;0.90;;;0.80;;
1074;SDS011;526;51.392;12.448;2022-10-16T11:55:46;1.00;;;0.90;;
1074;SDS011;526;51.392;12.448;2022-10-16T11:58:20;1.10;;;1.00;;
1074;SDS011;526;51.392;12.448;2022-10-16T12:08:52;1.07;;;1.00;;
1074;SDS011;526;51.392;12.448;2022-10-16T12:11:23;1.03;;;0.93;;
1074;SDS011;526;51.392;12.448;2022-10-16T12:16:53;0.70;;;0.70;;
1074;SDS011;526;51.392;12.448;2022-10-16T12:19:30;1.00;;;0.90;;
1074;SDS011;526;51.392;12.448;2022-10-16T12:22:02;1.30;;;1.20;;
1074;SDS011;526;51.392;12.448;2022-10-16T12:25:03;1.00;;;0.90;;
1074;SDS011;526;51.392;12.448;2022-10-16T12:27:52;1.00;;;0.90;;
1074;SDS011;526;51.392;12.448;2022-10-16T12:31:03;1.10;;;1.00;;
1074;SDS011;526;51.392;12.448;2022-10-16T12:33:40;1.00;;;0.90;;
1074;SDS011;526;51.392;12.448;2022-10-16T12:36:26;1.03;;;0.93;;
1074;SDS011;526;51.392;12.448;2022-10-16T12:38:59;1.37;;;1.30;;
1074;SDS011;526;51.392;12.448;2022-10-16T12:47:50;2.60;;;1.03;;
1074;SDS011;526;51.392;12.448;2022-10-16T12:53:22;1.10;;;1.00;;
1074;SDS011;526;51.392;12.448;2022-10-16T13:02:47;3.47;;;1.93;;
1074;SDS011;526;51.392;12.448;2022-10-16T13:15:04;0.93;;;0.90;;
1074;SDS011;526;51.392;12.448;2022-10-16T13:20:27;1.00;;;0.90;;
1074;SDS011;526;51.392;12.448;2022-10-16T13:25:47;0.90;;;0.90;;
1074;SDS011;526;51.392;12.448;2022-10-16T13:28:21;2.10;;;1.23;;
1074;SDS011;526;51.392;12.448;2022-10-16T13:30:52;0.70;;;0.70;;
1074;SDS011;526;51.392;12.448;2022-10-16T13:36:04;0.97;;;0.97;;
1074;SDS011;526;51.392;12.448;2022-10-16T13:38:34;1.77;;;1.53;;
1074;SDS011;526;51.392;12.448;2022-10-16T13:41:02;1.00;;;0.90;;
1074;SDS011;526;51.392;12.448;2022-10-16T13:43:37;1.27;;;1.17;;
1074;SDS011;526;51.392;12.448;2022-10-16T13:46:05;0.80;;;0.80;;
1074;SDS011;526;51.392;12.448;2022-10-16T13:48:41;5.90;;;1.47;;
1074;SDS011;526;51.392;12.448;2022-10-16T13:53:40;1.00;;;0.90;;
1074;SDS011;526;51.392;12.448;2022-10-16T13:56:07;1.07;;;0.97;;
1074;SDS011;526;51.392;12.448;2022-10-16T13:58:36;1.10;;;1.00;;
1074;SDS011;526;51.392;12.448;2022-10-16T14:01:03;1.03;;;0.93;;
1074;SDS011;526;51.392;12.448;2022-10-16T14:03:30;0.90;;;0.80;;
1074;SDS011;526;51.392;12.448;2022-10-16T14:06:00;0.90;;;0.80;;
1074;SDS011;526;51.392;12.448;2022-10-16T14:08:29;0.90;;;0.80;;
1074;SDS011;526;51.392;12.448;2022-10-16T14:10:56;1.27;;;1.17;;
1074;SDS011;526;51.392;12.448;2022-10-16T14:13:43;0.90;;;0.90;;
1074;SDS011;526;51.392;12.448;2022-10-16T14:16:11;1.00;;;0.90;;
1074;SDS011;526;51.392;12.448;2022-10-16T14:18:44;1.10;;;1.00;;
1074;SDS011;526;51.392;12.448;2022-10-16T14:21:15;1.07;;;0.97;;
1074;SDS011;526;51.392;12.448;2022-10-16T14:23:42;1.00;;;0.90;;
1074;SDS011;526;51.392;12.448;2022-10-16T14:28:33;0.97;;;0.87;;
1074;SDS011;526;51.392;12.448;2022-10-16T14:31:02;1.10;;;1.00;;
1074;SDS011;526;51.392;12.448;2022-10-16T14:33:51;0.90;;;0.80;;
1074;SDS011;526;51.392;12.448;2022-10-16T14:36:16;2.73;;;1.27;;
1074;SDS011;526;51.392;12.448;2022-10-16T14:38:48;2.40;;;1.10;;
1074;SDS011;526;51.392;12.448;2022-10-16T14:41:19;1.90;;;1.00;;
1074;SDS011;526;51.392;12.448;2022-10-16T14:43:49;1.53;;;1.27;;
1074;SDS011;526;51.392;12.448;2022-10-16T14:46:18;1.57;;;0.90;;
1074;SDS011;526;51.392;12.448;2022-10-16T14:48:46;1.10;;;1.00;;
1074;SDS011;526;51.392;12.448;2022-10-16T14:51:15;0.90;;;0.80;;
1074;SDS011;526;51.392;12.448;2022-10-16T14:53:42;1.07;;;0.97;;
1074;SDS011;526;51.392;12.448;2022-10-16T14:56:23;1.27;;;1.17;;
1074;SDS011;526;51.392;12.448;2022-10-16T14:59:26;1.00;;;0.90;;
1074;SDS011;526;51.392;12.448;2022-10-16T15:05:32;1.07;;;0.90;;
1074;SDS011;526;51.392;12.448;2022-10-16T15:10:52;1.17;;;1.07;;
1074;SDS011;526;51.392;12.448;2022-10-16T15:13:32;1.53;;;1.43;;
1074;SDS011;526;51.392;12.448;2022-10-16T15:16:22;0.90;;;0.80;;
1074;SDS011;526;51.392;12.448;2022-10-16T15:18:47;1.07;;;0.90;;
1074;SDS011;526;51.392;12.448;2022-10-16T15:21:29;1.37;;;1.20;;
1074;SDS011;526;51.392;12.448;2022-10-16T15:23:56;0.90;;;0.90;;
1074;SDS011;526;51.392;12.448;2022-10-16T15:26:24;1.03;;;0.93;;
1074;SDS011;526;51.392;12.448;2022-10-16T15:28:51;2.33;;;1.77;;
1074;SDS011;526;51.392;12.448;2022-10-16T15:31:17;1.03;;;0.93;;
1074;SDS011;526;51.392;12.448;2022-10-16T15:33:48;2.00;;;1.10;;
1074;SDS011;526;51.392;12.448;2022-10-16T15:36:17;1.63;;;1.53;;
1074;SDS011;526;51.392;12.448;2022-10-16T15:38:48;1.53;;;1.37;;
1074;SDS011;526;51.392;12.448;2022-10-16T15:41:23;1.10;;;1.00;;
1074;SDS011;526;51.392;12.448;2022-10-16T15:44:02;0.97;;;0.87;;
1074;SDS011;526;51.392;12.448;2022-10-16T15:47:22;0.97;;;0.93;;
1074;SDS011;526;51.392;12.448;2022-10-16T15:49:32;1.63;;;1.53;;
1074;SDS011;526;51.392;12.448;2022-10-16T15:52:13;1.80;;;1.10;;
1074;SDS011;526;51.392;12.448;2022-10-16T15:55:33;1.00;;;0.90;;
1074;SDS011;526;51.392;12.448;2022-10-16T15:58:10;1.50;;;1.30;;
1074;SDS011;526;51.392;12.448;2022-10-16T16:00:42;1.60;;;1.50;;
1074;SDS011;526;51.392;12.448;2022-10-16T16:03:11;1.00;;;0.90;;
1074;SDS011;526;51.392;12.448;2022-10-16T16:05:39;1.10;;;1.00;;
1074;SDS011;526;51.392;12.448;2022-10-16T16:08:05;0.90;;;0.90;;
1074;SDS011;526;51.392;12.448;2022-10-16T16:10:33;1.33;;;1.27;;
1074;SDS011;526;51.392;12.448;2022-10-16T16:13:11;2.17;;;1.40;;
1074;SDS011;526;51.392;12.448;2022-10-16T16:18:52;1.10;;;1.00;;
1074;SDS011;526;51.392;12.448;2022-10-16T16:24:32;7.37;;;5.27;;
1074;SDS011;526;51.392;12.448;2022-10-16T16:27:01;9.47;;;4.80;;
1074;SDS011;526;51.392;12.448;2022-10-16T16:29:32;5.83;;;4.30;;
1074;SDS011;526;51.392;12.448;2022-10-16T16:32:04;5.57;;;3.00;;
1074;SDS011;526;51.392;12.448;2022-10-16T16:34:39;9.00;;;4.73;;
1074;SDS011;526;51.392;12.448;2022-10-16T16:37:12;2.33;;;2.13;;
1074;SDS011;526;51.392;12.448;2022-10-16T16:39:38;4.80;;;2.53;;
1074;SDS011;526;51.392;12.448;2022-10-16T16:42:03;2.00;;;1.90;;
1074;SDS011;526;51.392;12.448;2022-10-16T16:44:31;3.60;;;2.00;;
1074;SDS011;526;51.392;12.448;2022-10-16T16:46:57;1.50;;;1.40;;
1074;SDS011;526;51.392;12.448;2022-10-16T16:49:23;1.73;;;1.63;;
1074;SDS011;526;51.392;12.448;2022-10-16T16:51:48;1.37;;;1.13;;
1074;SDS011;526;51.392;12.448;2022-10-16T16:54:14;3.77;;;2.10;;
1074;SDS011;526;51.392;12.448;2022-10-16T16:56:46;1.50;;;1.47;;
1074;SDS011;526;51.392;12.448;2022-10-16T16:59:13;2.07;;;1.40;;
1074;SDS011;526;51.392;12.448;2022-10-16T17:01:40;5.63;;;2.00;;
1074;SDS011;526;51.392;12.448;2022-10-16T17:04:06;1.80;;;1.70;;
1074;SDS011;526;51.392;12.448;2022-10-16T17:06:32;1.60;;;1.50;;
1074;SDS011;526;51.392;12.448;2022-10-16T17:09:05;1.90;;;1.80;;
1074;SDS011;526;51.392;12.448;2022-10-16T17:12:02;1.47;;;1.37;;
1074;SDS011;526;51.392;12.448;2022-10-16T17:14:31;2.50;;;2.03;;
1074;SDS011;526;51.392;12.448;2022-10-16T17:20:00;2.50;;;1.77;;
1074;SDS011;526;51.392;12.448;2022-10-16T17:22:40;2.00;;;1.83;;
1074;SDS011;526;51.392;12.448;2022-10-16T17:27:43;1.60;;;1.50;;
1074;SDS011;526;51.392;12.448;2022-10-16T17:30:32;1.53;;;1.40;;
1074;SDS011;526;51.392;12.448;2022-10-16T17:33:02;1.57;;;1.47;;
1074;SDS011;526;51.392;12.448;2022-10-16T17:35:44;2.20;;;2.00;;
1074;SDS011;526;51.392;12.448;2022-10-16T17:38:22;4.93;;;2.70;;
1074;SDS011;526;51.392;12.448;2022-10-16T17:40:51;2.27;;;1.33;;
1074;SDS011;526;51.392;12.448;2022-10-16T17:43:23;1.90;;;1.80;;
1074;SDS011;526;51.392;12.448;2022-10-16T17:48:51;2.13;;;1.97;;
1074;SDS011;526;51.392;12.448;2022-10-16T17:51:21;2.40;;;1.87;;
1074;SDS011;526;51.392;12.448;2022-10-16T17:53:50;5.20;;;2.63;;
1074;SDS011;526;51.392;12.448;2022-10-16T17:56:17;1.23;;;1.20;;
1074;SDS011;526;51.392;12.448;2022-10-16T17:58:50;2.43;;;2.23;;
1074;SDS011;526;51.392;12.448;2022-10-16T18:01:21;3.03;;;1.97;;